createdAt,value
2018-02-16T00:00:18.120Z,2.84
2018-02-16T00:02:45.630Z,2.87
2018-02-16T00:05:13.147Z,2.88
2018-02-16T00:07:40.664Z,2.90
2018-02-16T00:10:08.201Z,2.91
2018-02-16T00:12:35.720Z,2.89
2018-02-16T00:15:03.232Z,2.94
2018-02-16T00:17:30.745Z,3.02
2018-02-16T00:19:58.256Z,3.03
2018-02-16T00:22:25.771Z,3.04
2018-02-16T00:24:53.295Z,3.06
2018-02-16T00:27:20.822Z,3.00
2018-02-16T00:29:48.347Z,3.04
2018-02-16T00:32:15.861Z,3.09
2018-02-16T00:34:43.388Z,3.15
2018-02-16T00:37:10.992Z,3.11
2018-02-16T00:39:38.507Z,3.16
2018-02-16T00:42:06.043Z,3.20
2018-02-16T00:44:33.566Z,3.21
2018-02-16T00:47:01.127Z,3.23
2018-02-16T00:49:28.649Z,3.28
2018-02-16T00:51:56.179Z,3.28
2018-02-16T00:54:23.805Z,3.29
2018-02-16T00:56:51.316Z,3.29
2018-02-16T00:59:18.925Z,3.27
2018-02-16T01:01:46.479Z,3.33
2018-02-16T01:04:14.007Z,3.28
2018-02-16T01:06:41.523Z,3.34
2018-02-16T01:09:09.052Z,3.36
2018-02-16T01:11:36.584Z,3.38
2018-02-16T01:14:04.117Z,3.32
2018-02-16T01:16:31.632Z,3.34
2018-02-16T01:18:59.158Z,3.34
2018-02-16T01:21:26.693Z,3.43
2018-02-16T01:23:54.312Z,3.38
2018-02-16T01:26:21.856Z,3.41
2018-02-16T01:28:49.397Z,3.42
2018-02-16T01:31:16.929Z,3.38
2018-02-16T01:33:44.449Z,3.34
2018-02-16T01:36:11.976Z,3.30
2018-02-16T01:38:39.510Z,3.20
2018-02-16T01:41:07.124Z,3.14
2018-02-16T01:43:34.638Z,3.04
2018-02-16T01:46:02.149Z,2.99
2018-02-16T01:48:29.673Z,2.95
2018-02-16T01:50:57.281Z,2.91
2018-02-16T01:53:24.797Z,2.87
2018-02-16T01:55:52.396Z,2.89
2018-02-16T01:58:19.945Z,2.89
2018-02-16T02:00:47.472Z,2.91
2018-02-16T02:03:14.992Z,2.88
2018-02-16T02:05:42.505Z,2.98
2018-02-16T02:08:10.036Z,2.96
2018-02-16T02:10:37.559Z,2.99
2018-02-16T02:13:05.084Z,2.94
2018-02-16T02:15:32.624Z,2.95
2018-02-16T02:18:00.237Z,2.98
2018-02-16T02:20:27.747Z,3.00
2018-02-16T02:22:55.260Z,2.95
2018-02-16T02:25:22.775Z,2.94
2018-02-16T02:27:50.319Z,2.98
2018-02-16T02:30:17.857Z,2.99
2018-02-16T02:32:45.496Z,2.98
2018-02-16T02:35:13.036Z,3.03
2018-02-16T02:37:40.599Z,3.02
2018-02-16T02:40:08.132Z,3.05
2018-02-16T02:42:35.696Z,3.02
2018-02-16T02:45:03.210Z,3.04
2018-02-16T02:47:30.739Z,3.13
2018-02-16T02:49:58.255Z,3.13
2018-02-16T02:52:25.772Z,3.02
2018-02-16T02:54:53.296Z,3.02
2018-02-16T02:57:20.858Z,3.02
2018-02-16T02:59:48.408Z,3.07
2018-02-16T03:02:15.951Z,3.01
2018-02-16T03:04:43.469Z,3.05
2018-02-16T03:07:11.027Z,3.11
2018-02-16T03:09:38.542Z,3.10
2018-02-16T03:12:06.145Z,3.14
2018-02-16T03:14:33.665Z,3.13
2018-02-16T03:17:01.179Z,3.19
2018-02-16T03:19:28.699Z,3.13
2018-02-16T03:21:56.282Z,3.14
2018-02-16T03:24:23.791Z,3.14
2018-02-16T03:26:51.305Z,3.16
2018-02-16T03:29:18.822Z,3.12
2018-02-16T03:31:46.367Z,3.07
2018-02-16T03:34:13.919Z,3.11
2018-02-16T03:36:41.560Z,3.07
2018-02-16T03:39:09.114Z,3.07
2018-02-16T03:41:36.675Z,3.07
2018-02-16T03:44:04.188Z,3.05
2018-02-16T03:46:31.724Z,3.11
2018-02-16T03:48:59.341Z,3.11
2018-02-16T03:51:26.853Z,3.15
2018-02-16T03:53:54.371Z,3.14
2018-02-16T03:56:21.889Z,3.09
2018-02-16T03:58:49.467Z,3.11
2018-02-16T04:01:16.992Z,3.13
2018-02-16T04:03:44.509Z,3.12
2018-02-16T04:06:12.031Z,3.05
2018-02-16T04:08:39.619Z,3.03
2018-02-16T04:11:07.171Z,3.05
2018-02-16T04:13:34.764Z,2.99
2018-02-16T04:16:02.306Z,2.89
2018-02-16T04:18:29.820Z,2.87
2018-02-16T04:20:57.372Z,2.78
2018-02-16T04:23:24.909Z,2.76
2018-02-16T04:25:52.424Z,2.67
2018-02-16T04:28:19.940Z,2.60
2018-02-16T04:30:47.466Z,2.56
2018-02-16T04:33:14.988Z,2.45
2018-02-16T04:35:42.549Z,2.42
2018-02-16T04:38:10.139Z,2.34
2018-02-16T04:40:37.657Z,2.30
2018-02-16T04:43:05.208Z,2.28
2018-02-16T04:45:32.746Z,2.22
2018-02-16T04:48:00.283Z,2.21
2018-02-16T04:50:27.795Z,2.19
2018-02-16T04:52:55.331Z,2.16
2018-02-16T04:55:22.862Z,2.14
2018-02-16T04:57:50.368Z,2.13
2018-02-16T05:00:17.914Z,2.12
2018-02-16T05:02:45.419Z,2.10
2018-02-16T05:05:13.224Z,2.08
2018-02-16T05:07:40.751Z,2.10
2018-02-16T05:10:08.432Z,2.10
2018-02-16T05:12:36.309Z,2.09
2018-02-16T05:15:04.183Z,2.09
2018-02-16T05:17:32.056Z,2.07
2018-02-16T05:19:59.920Z,2.05
2018-02-16T05:22:27.694Z,2.06
2018-02-16T05:24:55.668Z,2.05
2018-02-16T05:27:23.936Z,2.05
2018-02-16T05:29:51.650Z,2.05
2018-02-16T05:32:19.539Z,2.02
2018-02-16T05:34:47.406Z,1.98
2018-02-16T05:37:15.291Z,1.98
2018-02-16T05:39:43.277Z,1.98
2018-02-16T05:42:10.815Z,2.00
2018-02-16T05:44:38.329Z,1.97
2018-02-16T05:47:05.847Z,1.95
2018-02-16T05:49:33.369Z,1.96
2018-02-16T05:52:01.025Z,1.90
2018-02-16T05:54:28.544Z,1.92
2018-02-16T05:56:56.070Z,1.89
2018-02-16T05:59:23.704Z,1.88
2018-02-16T06:01:51.232Z,1.88
2018-02-16T06:04:18.763Z,1.88
2018-02-16T06:06:46.282Z,1.84
2018-02-16T06:09:13.792Z,1.88
2018-02-16T06:11:41.333Z,1.83
2018-02-16T06:14:08.840Z,1.82
2018-02-16T06:16:36.361Z,1.80
2018-02-16T06:19:03.876Z,1.83
2018-02-16T06:21:31.436Z,1.85
2018-02-16T06:23:58.964Z,1.88
2018-02-16T06:26:26.480Z,1.85
2018-02-16T06:28:54.014Z,1.96
2018-02-16T06:31:21.574Z,2.06
2018-02-16T06:33:49.083Z,2.00
2018-02-16T06:36:16.600Z,2.00
2018-02-16T06:38:44.155Z,2.01
2018-02-16T06:41:11.688Z,2.03
2018-02-16T06:43:39.271Z,2.06
2018-02-16T06:46:06.832Z,2.10
2018-02-16T06:48:34.335Z,2.13
2018-02-16T06:51:01.849Z,2.16
2018-02-16T06:53:29.361Z,2.19
2018-02-16T06:55:56.963Z,2.24
2018-02-16T06:58:24.528Z,2.27
2018-02-16T07:00:52.059Z,2.29
2018-02-16T07:03:19.664Z,2.34
2018-02-16T07:05:47.212Z,2.47
2018-02-16T07:08:14.768Z,2.49
2018-02-16T07:10:42.272Z,2.54
2018-02-16T07:13:09.784Z,2.62
2018-02-16T07:15:37.299Z,2.63
2018-02-16T07:18:04.814Z,2.78
2018-02-16T07:20:32.360Z,2.84
2018-02-16T07:22:59.945Z,3.07
2018-02-16T07:25:27.488Z,3.13
2018-02-16T07:27:55.041Z,3.17
2018-02-16T07:30:22.564Z,3.37
2018-02-16T07:32:50.112Z,3.50
2018-02-16T07:35:17.641Z,3.64
2018-02-16T07:37:45.179Z,3.67
2018-02-16T07:40:12.684Z,3.79
2018-02-16T07:42:40.223Z,3.99
2018-02-16T07:45:07.780Z,3.84
2018-02-16T07:47:35.383Z,4.06
2018-02-16T07:50:02.899Z,4.20
2018-02-16T07:52:30.427Z,4.44
2018-02-16T07:54:57.959Z,4.77
2018-02-16T07:57:25.475Z,5.22
2018-02-16T07:59:52.999Z,5.21
2018-02-16T08:02:20.517Z,5.05
2018-02-16T08:04:48.089Z,5.14
2018-02-16T08:07:15.613Z,5.25
2018-02-16T08:09:43.141Z,5.51
2018-02-16T08:12:10.748Z,5.61
2018-02-16T08:14:38.392Z,5.89
2018-02-16T08:17:05.909Z,6.32
2018-02-16T08:19:33.436Z,6.77
2018-02-16T08:22:00.941Z,7.20
2018-02-16T08:24:28.455Z,7.21
2018-02-16T08:26:55.978Z,7.24
2018-02-16T08:29:23.552Z,7.87
2018-02-16T08:31:51.068Z,7.97
2018-02-16T08:34:18.593Z,8.43
2018-02-16T08:36:46.108Z,8.92
2018-02-16T08:39:13.621Z,9.34
2018-02-16T08:41:41.132Z,9.26
2018-02-16T08:44:08.651Z,10.27
2018-02-16T08:46:36.247Z,9.95
2018-02-16T08:49:03.756Z,9.95
2018-02-16T08:51:31.279Z,10.49
2018-02-16T08:53:58.817Z,10.75
2018-02-16T08:56:26.342Z,10.57
2018-02-16T08:58:53.889Z,10.36
2018-02-16T09:01:21.486Z,10.59
2018-02-16T09:03:49.024Z,10.92
2018-02-16T09:06:16.560Z,11.30
2018-02-16T09:08:44.094Z,11.63
2018-02-16T09:11:11.661Z,11.35
2018-02-16T09:13:39.191Z,12.36
2018-02-16T09:16:06.712Z,13.00
2018-02-16T09:18:34.236Z,12.01
2018-02-16T09:21:01.764Z,13.07
2018-02-16T09:23:29.460Z,13.31
2018-02-16T09:25:57.014Z,13.04
2018-02-16T09:28:24.574Z,13.90
2018-02-16T09:30:52.107Z,13.24
2018-02-16T09:33:19.628Z,14.55
2018-02-16T09:35:47.226Z,13.42
2018-02-16T09:38:14.747Z,13.40
2018-02-16T09:40:42.273Z,12.83
2018-02-16T09:43:09.794Z,13.30
2018-02-16T09:45:37.328Z,14.20
2018-02-16T09:48:04.837Z,14.75
2018-02-16T09:50:32.404Z,13.64
2018-02-16T09:52:59.925Z,12.52
2018-02-16T09:55:27.534Z,12.83
2018-02-16T09:57:55.089Z,14.20
2018-02-16T10:00:22.636Z,13.20
2018-02-16T10:02:50.145Z,13.93
2018-02-16T10:05:17.661Z,13.45
2018-02-16T10:07:45.187Z,14.69
2018-02-16T10:10:12.711Z,15.28
2018-02-16T10:12:40.237Z,14.06
2018-02-16T10:15:07.768Z,13.85
2018-02-16T10:17:35.289Z,14.70
2018-02-16T10:20:02.801Z,14.90
2018-02-16T10:22:30.316Z,15.02
2018-02-16T10:24:57.831Z,15.19
2018-02-16T10:27:25.343Z,14.02
2018-02-16T10:29:52.888Z,13.56
2018-02-16T10:32:20.521Z,13.18
2018-02-16T10:34:48.041Z,12.84
2018-02-16T10:37:15.579Z,13.10
2018-02-16T10:39:43.104Z,12.96
2018-02-16T10:42:10.629Z,11.22
2018-02-16T10:44:38.211Z,11.30
2018-02-16T10:47:05.767Z,10.72
2018-02-16T10:49:33.284Z,10.59
2018-02-16T10:52:00.857Z,9.70
2018-02-16T10:54:28.418Z,9.98
2018-02-16T10:56:56.029Z,10.13
2018-02-16T10:59:23.556Z,10.04
2018-02-16T11:01:56.696Z,10.81
2018-02-16T11:04:29.795Z,10.05
2018-02-16T11:07:10.006Z,9.92
2018-02-16T11:09:37.527Z,10.28
2018-02-16T11:12:05.060Z,9.35
2018-02-16T11:14:32.582Z,9.57
2018-02-16T11:17:00.107Z,10.07
2018-02-16T11:19:27.625Z,8.86
2018-02-16T11:21:55.140Z,8.92
2018-02-16T11:24:22.657Z,8.57
2018-02-16T11:26:50.163Z,8.42
2018-02-16T11:29:17.671Z,8.48
2018-02-16T11:31:45.188Z,8.91
2018-02-16T11:34:12.709Z,8.36
2018-02-16T11:36:40.286Z,8.70
2018-02-16T11:39:07.826Z,8.61
2018-02-16T11:41:35.343Z,8.67
2018-02-16T11:44:02.885Z,8.41
2018-02-16T11:46:30.412Z,8.55
2018-02-16T11:48:57.939Z,8.42
2018-02-16T11:51:25.464Z,8.82
2018-02-16T11:53:52.994Z,8.80
2018-02-16T11:56:20.522Z,9.20
2018-02-16T11:58:48.039Z,9.27
2018-02-16T12:01:15.554Z,9.39
2018-02-16T12:03:43.068Z,9.39
2018-02-16T12:06:10.589Z,9.30
2018-02-16T12:08:38.112Z,9.10
2018-02-16T12:11:05.633Z,9.06
2018-02-16T12:13:33.146Z,9.00
2018-02-16T12:16:00.694Z,8.87
2018-02-16T12:18:28.211Z,8.88
2018-02-16T12:20:55.736Z,8.48
2018-02-16T12:23:23.255Z,8.16
2018-02-16T12:25:50.788Z,8.16
2018-02-16T12:28:18.313Z,8.33
2018-02-16T12:30:45.840Z,8.31
2018-02-16T12:33:13.368Z,8.55
2018-02-16T12:35:40.890Z,8.46
2018-02-16T12:38:08.412Z,8.53
2018-02-16T12:40:35.932Z,8.48
2018-02-16T12:43:03.532Z,8.35
2018-02-16T12:45:31.051Z,8.50
2018-02-16T12:47:58.575Z,8.46
2018-02-16T12:50:26.101Z,8.49
2018-02-16T12:52:53.638Z,8.28
2018-02-16T12:55:21.162Z,8.49
2018-02-16T12:57:48.692Z,8.68
2018-02-16T13:00:16.215Z,8.86
2018-02-16T13:02:43.739Z,8.96
2018-02-16T13:05:11.263Z,8.72
2018-02-16T13:07:38.791Z,8.20
2018-02-16T13:10:06.315Z,8.25
2018-02-16T13:12:33.835Z,8.18
2018-02-16T13:15:01.368Z,8.08
2018-02-16T13:17:28.892Z,8.02
2018-02-16T13:19:56.420Z,7.95
2018-02-16T13:22:23.944Z,7.83
2018-02-16T13:24:51.468Z,8.09
2018-02-16T13:27:18.984Z,7.97
2018-02-16T13:29:46.513Z,7.87
2018-02-16T13:32:14.024Z,7.83
2018-02-16T13:34:41.578Z,7.85
2018-02-16T13:37:09.088Z,7.59
2018-02-16T13:39:36.648Z,7.65
2018-02-16T13:42:04.154Z,7.69
2018-02-16T13:44:31.666Z,7.92
2018-02-16T13:46:59.188Z,7.90
2018-02-16T13:49:26.711Z,7.98
2018-02-16T13:51:54.245Z,8.21
2018-02-16T13:54:21.843Z,8.40
2018-02-16T13:56:49.396Z,8.47
2018-02-16T13:59:16.964Z,8.62
2018-02-16T14:01:44.480Z,8.58
2018-02-16T14:04:12.018Z,8.45
2018-02-16T14:06:39.546Z,8.26
2018-02-16T14:09:07.068Z,8.40
2018-02-16T14:11:34.671Z,8.26
2018-02-16T14:14:02.156Z,8.28
2018-02-16T14:16:35.152Z,8.01
2018-02-16T14:19:02.673Z,8.12
2018-02-16T14:21:30.181Z,7.79
2018-02-16T14:23:57.714Z,7.56
2018-02-16T14:26:25.340Z,7.59
2018-02-16T14:28:52.870Z,7.24
2018-02-16T14:31:20.391Z,7.18
2018-02-16T14:33:48.019Z,7.20
2018-02-16T14:36:15.580Z,6.93
2018-02-16T14:38:43.136Z,6.95
2018-02-16T14:41:10.715Z,6.90
2018-02-16T14:43:38.356Z,6.77
2018-02-16T14:46:05.864Z,6.73
2018-02-16T14:48:33.378Z,6.65
2018-02-16T14:51:00.909Z,6.66
2018-02-16T14:53:28.432Z,6.60
2018-02-16T14:55:55.949Z,6.54
2018-02-16T14:58:23.461Z,6.48
2018-02-16T15:00:50.986Z,6.53
2018-02-16T15:03:18.496Z,6.46
2018-02-16T15:05:46.038Z,6.45
2018-02-16T15:08:13.562Z,6.51
2018-02-16T15:10:41.082Z,6.56
2018-02-16T15:13:08.609Z,6.67
2018-02-16T15:15:36.240Z,6.65
2018-02-16T15:18:03.760Z,6.58
2018-02-16T15:20:31.300Z,6.60
2018-02-16T15:22:58.912Z,6.57
2018-02-16T15:25:26.452Z,6.62
2018-02-16T15:27:53.999Z,6.55
2018-02-16T15:30:21.528Z,6.52
2018-02-16T15:32:49.040Z,6.50
2018-02-16T15:35:16.607Z,6.54
2018-02-16T15:37:44.137Z,6.51
2018-02-16T15:40:11.772Z,6.43
2018-02-16T15:42:39.284Z,6.46
2018-02-16T15:45:06.799Z,6.60
2018-02-16T15:47:34.410Z,6.64
2018-02-16T15:50:01.971Z,6.49
2018-02-16T15:52:29.488Z,6.55
2018-02-16T15:54:57.118Z,6.41
2018-02-16T15:57:24.649Z,6.37
2018-02-16T15:59:52.161Z,6.30
2018-02-16T16:02:19.781Z,6.21
2018-02-16T16:04:47.293Z,6.17
2018-02-16T16:07:14.833Z,6.11
2018-02-16T16:09:42.345Z,6.04
2018-02-16T16:12:09.859Z,6.07
2018-02-16T16:14:37.468Z,6.06
2018-02-16T16:17:05.028Z,6.00
2018-02-16T16:19:32.579Z,5.91
2018-02-16T16:22:00.096Z,5.95
2018-02-16T16:24:27.668Z,6.01
2018-02-16T16:26:55.179Z,5.94
2018-02-16T16:29:22.720Z,5.91
2018-02-16T16:31:50.287Z,5.85
2018-02-16T16:34:17.840Z,5.81
2018-02-16T16:36:45.403Z,5.75
2018-02-16T16:39:12.912Z,5.69
2018-02-16T16:41:40.529Z,5.61
2018-02-16T16:44:08.084Z,5.63
2018-02-16T16:46:35.592Z,5.49
2018-02-16T16:49:03.223Z,5.47
2018-02-16T16:51:30.771Z,5.40
2018-02-16T16:53:58.271Z,5.33
2018-02-16T16:56:25.879Z,5.24
2018-02-16T16:58:53.467Z,5.14
2018-02-16T17:01:21.008Z,5.10
2018-02-16T17:03:48.521Z,5.04
2018-02-16T17:06:16.043Z,5.02
2018-02-16T17:08:43.560Z,4.95
2018-02-16T17:11:11.076Z,4.81
2018-02-16T17:13:38.713Z,4.78
2018-02-16T17:16:06.236Z,4.73
2018-02-16T17:18:33.764Z,4.71
2018-02-16T17:21:01.408Z,4.66
2018-02-16T17:23:28.930Z,4.64
2018-02-16T17:25:56.518Z,4.63
2018-02-16T17:28:24.083Z,4.64
2018-02-16T17:30:51.604Z,4.64
2018-02-16T17:33:19.198Z,4.65
2018-02-16T17:35:46.711Z,4.68
2018-02-16T17:38:14.257Z,4.66
2018-02-16T17:40:41.781Z,4.65
2018-02-16T17:43:09.304Z,4.61
2018-02-16T17:45:36.823Z,4.56
2018-02-16T17:48:04.345Z,4.48
2018-02-16T17:50:31.868Z,4.43
2018-02-16T17:52:59.385Z,4.37
2018-02-16T17:55:26.905Z,4.35
2018-02-16T17:57:54.456Z,4.32
2018-02-16T18:00:21.973Z,4.27
2018-02-16T18:02:49.524Z,4.19
2018-02-16T18:05:17.055Z,4.14
2018-02-16T18:07:44.600Z,4.13
2018-02-16T18:10:12.127Z,4.08
2018-02-16T18:12:39.723Z,4.05
2018-02-16T18:15:07.243Z,3.99
2018-02-16T18:17:34.761Z,3.98
2018-02-16T18:20:02.281Z,3.95
2018-02-16T18:22:29.832Z,3.90
2018-02-16T18:24:57.360Z,3.89
2018-02-16T18:27:24.868Z,3.85
2018-02-16T18:29:52.472Z,3.76
2018-02-16T18:32:19.990Z,3.76
2018-02-16T18:34:47.583Z,3.73
2018-02-16T18:37:15.099Z,3.72
2018-02-16T18:39:42.704Z,3.68
2018-02-16T18:42:10.221Z,3.64
2018-02-16T18:44:37.743Z,3.61
2018-02-16T18:47:05.299Z,3.62
2018-02-16T18:49:32.842Z,3.55
2018-02-16T18:52:00.352Z,3.53
2018-02-16T18:54:27.869Z,3.50
2018-02-16T18:56:55.386Z,3.46
2018-02-16T18:59:22.900Z,3.42
2018-02-16T19:01:50.422Z,3.42
2018-02-16T19:04:17.971Z,3.40
2018-02-16T19:06:45.544Z,3.33
2018-02-16T19:09:13.106Z,3.35
2018-02-16T19:11:40.661Z,3.36
2018-02-16T19:14:08.269Z,3.33
2018-02-16T19:16:35.806Z,3.33
2018-02-16T19:19:03.488Z,3.31
2018-02-16T19:21:31.123Z,3.25
2018-02-16T19:23:58.848Z,3.26
2018-02-16T19:26:26.408Z,3.23
2018-02-16T19:28:54.413Z,3.20
2018-02-16T19:31:22.181Z,3.20
2018-02-16T19:33:49.745Z,3.17
2018-02-16T19:36:17.256Z,3.13
2018-02-16T19:38:44.788Z,3.13
2018-02-16T19:41:12.351Z,3.11
2018-02-16T19:43:39.845Z,3.11
2018-02-16T19:46:08.259Z,3.08
2018-02-16T19:48:36.010Z,3.06
2018-02-16T19:51:03.542Z,3.04
2018-02-16T19:53:31.143Z,3.01
2018-02-16T19:55:59.115Z,2.99
2018-02-16T19:58:26.756Z,2.96
2018-02-16T20:00:55.155Z,2.94
2018-02-16T20:03:22.879Z,2.93
2018-02-16T20:05:51.149Z,2.94
2018-02-16T20:08:19.175Z,2.88
2018-02-16T20:10:46.759Z,2.88
2018-02-16T20:13:14.338Z,2.85
2018-02-16T20:15:41.944Z,2.86
2018-02-16T20:18:09.469Z,2.87
2018-02-16T20:20:37.016Z,2.85
2018-02-16T20:23:04.554Z,2.81
2018-02-16T20:25:32.171Z,2.77
2018-02-16T20:28:00.059Z,2.75
2018-02-16T20:30:28.231Z,2.73
2018-02-16T20:32:55.824Z,2.72
2018-02-16T20:35:23.476Z,2.70
2018-02-16T20:37:51.729Z,2.67
2018-02-16T20:40:19.458Z,2.65
2018-02-16T20:42:46.992Z,2.66
2018-02-16T20:45:14.543Z,2.62
2018-02-16T20:47:42.277Z,2.59
2018-02-16T20:50:09.823Z,2.59
2018-02-16T20:52:37.353Z,2.57
2018-02-16T20:55:04.902Z,2.57
2018-02-16T20:57:32.431Z,2.53
2018-02-16T20:59:59.956Z,2.52
2018-02-16T21:02:27.522Z,2.50
2018-02-16T21:04:55.036Z,2.46
2018-02-16T21:07:22.639Z,2.48
2018-02-16T21:09:50.165Z,2.46
2018-02-16T21:12:17.769Z,2.46
2018-02-16T21:14:45.321Z,2.45
2018-02-16T21:17:12.889Z,2.42
2018-02-16T21:19:40.401Z,2.39
2018-02-16T21:22:08.097Z,2.37
2018-02-16T21:24:35.779Z,2.37
2018-02-16T21:27:03.297Z,2.34
2018-02-16T21:29:30.893Z,2.33
2018-02-16T21:31:58.408Z,2.32
2018-02-16T21:34:25.956Z,2.30
2018-02-16T21:36:53.520Z,2.27
2018-02-16T21:39:21.039Z,2.25
2018-02-16T21:41:48.568Z,2.24
2018-02-16T21:44:16.096Z,2.23
2018-02-16T21:46:43.819Z,2.23
2018-02-16T21:49:11.381Z,2.21
2018-02-16T21:51:38.938Z,2.19
2018-02-16T21:54:06.452Z,2.18
2018-02-16T21:56:33.988Z,2.17
2018-02-16T21:59:01.511Z,2.15
2018-02-16T22:01:29.033Z,2.18
2018-02-16T22:03:56.592Z,2.16
2018-02-16T22:06:24.147Z,2.17
2018-02-16T22:08:51.725Z,2.13
2018-02-16T22:11:19.305Z,2.11
2018-02-16T22:13:46.819Z,2.08
2018-02-16T22:16:14.348Z,2.04
2018-02-16T22:18:41.864Z,2.05
2018-02-16T22:21:09.388Z,2.02
2018-02-16T22:23:36.902Z,2.03
2018-02-16T22:26:04.412Z,1.96
2018-02-16T22:28:31.939Z,1.92
2018-02-16T22:30:59.460Z,1.95
2018-02-16T22:33:27.014Z,1.93
2018-02-16T22:35:54.726Z,1.91
2018-02-16T22:38:22.255Z,1.89
2018-02-16T22:40:50.355Z,1.84
2018-02-16T22:43:18.016Z,1.83
2018-02-16T22:45:45.534Z,1.79
2018-02-16T22:48:13.062Z,1.78
2018-02-16T22:50:40.579Z,1.78
2018-02-16T22:53:08.108Z,1.76
2018-02-16T22:55:35.700Z,1.74
2018-02-16T22:58:03.218Z,1.69
2018-02-16T23:00:30.745Z,1.70
2018-02-16T23:02:58.255Z,1.67
2018-02-16T23:05:25.775Z,1.66
2018-02-16T23:07:53.407Z,1.65
2018-02-16T23:10:20.935Z,1.60
2018-02-16T23:12:48.452Z,1.58
2018-02-16T23:15:15.969Z,1.53
2018-02-16T23:17:43.542Z,1.51
2018-02-16T23:20:11.104Z,1.49
2018-02-16T23:22:38.665Z,1.48
2018-02-16T23:25:06.200Z,1.46
2018-02-16T23:27:33.724Z,1.46
2018-02-16T23:30:01.268Z,1.45
2018-02-16T23:32:28.901Z,1.45
2018-02-16T23:34:56.422Z,1.41
2018-02-16T23:37:23.947Z,1.42
2018-02-16T23:39:51.479Z,1.40
2018-02-16T23:42:18.988Z,1.41
2018-02-16T23:44:46.537Z,1.39
2018-02-16T23:47:14.065Z,1.38
2018-02-16T23:49:41.592Z,1.38
2018-02-16T23:52:09.111Z,1.37
2018-02-16T23:54:36.685Z,1.38
2018-02-16T23:57:04.230Z,1.35
2018-02-16T23:59:31.781Z,1.37
